Time;durP1;ratioP1;P1;durP2;ratioP2;P2;SDS_P1;SDS_P2;PMS_P1;PMS_P2;Temp;Humidity;BMP_temperature;BMP_pressure;BME280_temperature;BME280_humidity;BME280_pressure;Samples;Min_cycle;Max_cycle;Signal;HPM_P1;HPM_P2
2022/09/04 00:00:10;;;;;;;9.18;6.43;;;13.90;99.90;;;;;;5073380;28;20385;-79
2022/09/04 00:02:49;;;;;;;7.57;5.68;;;13.90;99.90;;;;;;5073101;28;20033;-79
2022/09/04 00:05:18;;;;;;;8.15;5.45;;;14.00;99.90;;;;;;5053892;28;20049;-80
2022/09/04 00:08:06;;;;;;;10.93;7.93;;;14.00;99.90;;;;;;5072976;28;20036;-79
2022/09/04 00:10:35;;;;;;;10.65;6.30;;;14.00;99.90;;;;;;5054857;28;20036;-80
2022/09/04 00:13:11;;;;;;;8.63;5.82;;;14.10;99.90;;;;;;5060187;28;20032;-80
2022/09/04 00:15:48;;;;;;;6.13;4.35;;;14.00;99.90;;;;;;5053122;28;20041;-80
2022/09/04 00:18:25;;;;;;;6.03;4.75;;;14.00;99.90;;;;;;5036024;28;20049;-80
2022/09/04 00:20:55;;;;;;;6.78;3.80;;;14.00;99.90;;;;;;5062679;28;20047;-79
2022/09/04 00:23:21;;;;;;;5.45;3.75;;;14.00;99.90;;;;;;5072276;28;20032;-80
2022/09/04 00:26:29;;;;;;;6.57;4.47;;;13.90;99.90;;;;;;5059397;28;20055;-80
2022/09/04 00:29:02;;;;;;;6.85;4.32;;;13.90;99.90;;;;;;5075337;28;20052;-80
2022/09/04 00:31:37;;;;;;;6.35;4.30;;;13.80;99.90;;;;;;5092153;28;20346;-80
2022/09/04 00:34:22;;;;;;;6.78;4.78;;;13.70;99.90;;;;;;5092035;28;20028;-79
2022/09/04 00:36:53;;;;;;;6.28;4.53;;;13.60;99.90;;;;;;5090517;28;20040;-79
2022/09/04 00:39:34;;;;;;;;;;;13.60;99.90;;;;;;5073301;28;20040;-79
2022/09/04 00:42:03;;;;;;;8.48;4.82;;;13.60;99.90;;;;;;5085181;28;19908;-80
2022/09/04 00:44:51;;;;;;;8.95;5.53;;;13.50;99.90;;;;;;5090631;28;20396;-79
2022/09/04 00:47:39;;;;;;;10.88;7.00;;;13.50;99.90;;;;;;5071441;28;20037;-79
2022/09/04 00:50:06;;;;;;;8.73;5.25;;;13.60;99.90;;;;;;5072050;28;20053;-83
2022/09/04 00:52:53;;;;;;;9.32;5.57;;;13.50;99.90;;;;;;5072445;28;20032;-79
2022/09/04 00:55:54;;;;;;;6.43;4.80;;;13.40;99.90;;;;;;5071609;28;20043;-79
2022/09/04 00:58:34;;;;;;;9.00;6.13;;;13.30;99.90;;;;;;5071620;28;20041;-80
2022/09/04 01:01:01;;;;;;;8.80;5.68;;;13.40;99.90;;;;;;5072515;28;20036;-79
2022/09/04 01:03:52;;;;;;;7.47;5.80;;;13.40;99.90;;;;;;5072136;28;20600;-80
2022/09/04 01:06:35;;;;;;;8.25;4.97;;;13.30;99.90;;;;;;5071317;28;20462;-79
2022/09/04 01:09:36;;;;;;;7.68;4.88;;;13.30;99.90;;;;;;5082835;28;20044;-79
2022/09/04 01:12:25;;;;;;;9.38;5.22;;;13.20;99.90;;;;;;5089628;28;20047;-79
2022/09/04 01:14:57;;;;;;;8.35;5.85;;;13.20;99.90;;;;;;5071926;28;20047;-79
2022/09/04 01:17:40;;;;;;;8.98;5.47;;;13.20;99.90;;;;;;5071409;28;20032;-79
2022/09/04 01:20:21;;;;;;;9.20;6.20;;;13.10;99.90;;;;;;5080038;28;20039;-81
2022/09/04 01:23:17;;;;;;;9.27;5.68;;;13.20;99.90;;;;;;5092728;28;20024;-80
2022/09/04 01:25:46;;;;;;;9.35;6.38;;;13.20;99.90;;;;;;5088933;28;20040;-80
2022/09/04 01:28:25;;;;;;;10.93;6.88;;;13.20;99.90;;;;;;5072449;28;20059;-80
2022/09/04 01:31:03;;;;;;;12.27;8.05;;;13.10;99.90;;;;;;5047698;28;20473;-80
2022/09/04 01:33:58;;;;;;;9.68;6.72;;;13.10;99.90;;;;;;5040990;28;20044;-80
2022/09/04 01:36:53;;;;;;;14.68;7.70;;;13.10;99.90;;;;;;5054807;28;20367;-80
2022/09/04 01:39:23;;;;;;;12.93;8.90;;;13.10;99.90;;;;;;5054898;28;20033;-80
2022/09/04 01:42:00;;;;;;;17.40;8.82;;;13.10;99.90;;;;;;5053658;28;20033;-80
2022/09/04 01:44:26;;;;;;;15.38;9.32;;;13.00;99.90;;;;;;5035042;28;20109;-80
2022/09/04 01:47:34;;;;;;;12.80;8.13;;;13.10;99.90;;;;;;5052155;28;20031;-80
2022/09/04 01:50:06;;;;;;;12.07;8.68;;;13.00;99.90;;;;;;5036487;28;20045;-80
2022/09/04 01:52:47;;;;;;;14.27;8.60;;;13.00;99.90;;;;;;5065203;28;20472;-79
2022/09/04 01:55:27;;;;;;;11.30;7.40;;;13.00;99.90;;;;;;5052729;28;20044;-79
2022/09/04 01:58:17;;;;;;;11.88;8.25;;;12.90;99.90;;;;;;5072351;28;20032;-79
2022/09/04 02:01:09;;;;;;;15.63;8.65;;;12.80;99.90;;;;;;5071947;28;20029;-80
2022/09/04 02:03:47;;;;;;;16.67;8.55;;;12.70;99.90;;;;;;5070511;28;20063;-80
2022/09/04 02:06:30;;;;;;;15.02;9.02;;;12.70;99.90;;;;;;5051101;28;20036;-80
2022/09/04 02:09:26;;;;;;;12.38;7.95;;;12.70;99.90;;;;;;5053033;28;20048;-80
2022/09/04 02:12:26;;;;;;;13.55;7.57;;;12.80;99.90;;;;;;5070798;28;20036;-80
2022/09/04 02:14:58;;;;;;;15.23;9.15;;;12.90;99.90;;;;;;5052826;28;20039;-81
2022/09/04 02:17:51;;;;;;;14.60;7.82;;;12.90;99.90;;;;;;5032322;28;20055;-80
2022/09/04 02:20:23;;;;;;;13.15;7.78;;;12.80;99.90;;;;;;5032967;28;20037;-80
2022/09/04 02:23:16;;;;;;;13.70;7.93;;;12.90;99.90;;;;;;5051530;28;20474;-81
2022/09/04 02:26:24;;;;;;;11.60;6.70;;;12.80;99.90;;;;;;5050416;28;20053;-80
2022/09/04 02:28:53;;;;;;;11.10;7.80;;;12.80;99.90;;;;;;5033797;28;20033;-80
2022/09/04 02:31:29;;;;;;;12.07;7.43;;;12.80;99.90;;;;;;5051205;28;20037;-81
2022/09/04 02:34:22;;;;;;;13.27;8.00;;;12.80;99.90;;;;;;5033740;28;20037;-80
2022/09/04 02:37:13;;;;;;;11.93;7.05;;;12.80;99.90;;;;;;5050391;28;20033;-80
2022/09/04 02:40:18;;;;;;;9.40;7.05;;;12.70;99.90;;;;;;5051663;28;20033;-80
2022/09/04 02:42:45;;;;;;;10.10;6.60;;;12.70;99.90;;;;;;5051807;28;20029;-81
2022/09/04 02:45:54;;;;;;;10.77;7.32;;;12.60;99.90;;;;;;5049902;28;20036;-84
2022/09/04 02:48:36;;;;;;;13.77;7.63;;;12.60;99.90;;;;;;5052479;28;20033;-81
2022/09/04 02:51:31;;;;;;;11.82;6.78;;;12.60;99.90;;;;;;5061953;28;20453;-81
2022/09/04 02:54:15;;;;;;;16.80;9.88;;;12.60;99.90;;;;;;5074628;28;20500;-81
2022/09/04 02:56:51;;;;;;;14.30;8.10;;;12.70;99.90;;;;;;5073882;28;20037;-80
2022/09/04 02:59:48;;;;;;;13.25;8.98;;;12.70;99.90;;;;;;5055825;28;20049;-80
2022/09/04 03:02:29;;;;;;;16.92;9.73;;;12.70;99.90;;;;;;5055867;28;20037;-81
2022/09/04 03:05:21;;;;;;;11.43;7.88;;;12.60;99.90;;;;;;5074301;28;20036;-80
2022/09/04 03:08:22;;;;;;;19.55;10.82;;;12.60;99.90;;;;;;5074578;28;20037;-80
2022/09/04 03:10:59;;;;;;;13.82;8.90;;;12.70;99.90;;;;;;5029596;28;20048;-81
2022/09/04 03:13:58;;;;;;;16.05;9.00;;;12.60;99.90;;;;;;5058286;28;20051;-80
2022/09/04 03:16:28;;;;;;;17.90;9.05;;;12.70;99.90;;;;;;5072373;28;20496;-80
2022/09/04 03:19:03;;;;;;;13.27;9.05;;;12.60;99.90;;;;;;5056005;28;20037;-80
2022/09/04 03:21:54;;;;;;;15.27;8.45;;;12.50;99.90;;;;;;5060352;28;20032;-80
2022/09/04 03:24:45;;;;;;;13.88;8.50;;;12.40;99.90;;;;;;5046887;28;20037;-80
2022/09/04 03:27:14;;;;;;;14.60;8.45;;;12.50;99.90;;;;;;5065397;28;20060;-83
2022/09/04 03:30:06;;;;;;;12.35;8.23;;;12.40;99.90;;;;;;5073632;28;20040;-79
2022/09/04 03:33:01;;;;;;;12.15;7.43;;;12.40;99.90;;;;;;5055085;28;20571;-79
2022/09/04 03:35:49;;;;;;;13.82;8.25;;;12.40;99.90;;;;;;5071892;28;20083;-79
2022/09/04 03:38:43;;;;;;;12.10;7.38;;;12.40;99.90;;;;;;5065631;28;20048;-83
2022/09/04 03:41:29;;;;;;;13.82;7.95;;;12.40;99.90;;;;;;5024536;28;20397;-79
2022/09/04 03:44:26;;;;;;;13.10;7.40;;;12.40;99.90;;;;;;5049557;28;20381;-80
2022/09/04 03:47:29;;;;;;;11.98;8.45;;;12.40;99.90;;;;;;5020437;28;20048;-80
2022/09/04 03:50:20;;;;;;;13.90;7.78;;;12.40;99.90;;;;;;5036667;28;20057;-79
2022/09/04 03:52:58;;;;;;;13.13;7.60;;;12.60;99.90;;;;;;5054232;28;20033;-79
2022/09/04 03:55:43;;;;;;;14.90;8.38;;;12.60;99.90;;;;;;5058924;28;20032;-80
2022/09/04 03:58:12;;;;;;;13.98;8.80;;;12.70;99.90;;;;;;5036100;28;20056;-79
2022/09/04 04:01:24;;;;;;;13.68;8.20;;;12.60;99.90;;;;;;5053795;28;20476;-79
2022/09/04 04:04:16;;;;;;;13.05;8.07;;;12.50;99.90;;;;;;5054609;28;20025;-79
2022/09/04 04:07:07;;;;;;;12.20;7.43;;;12.50;99.90;;;;;;5063296;28;20374;-79
2022/09/04 04:09:46;;;;;;;;;;;12.40;99.90;;;;;;5054530;28;20053;-79
2022/09/04 04:12:33;;;;;;;12.73;7.43;;;12.40;99.90;;;;;;5072680;28;19908;-79
2022/09/04 04:15:09;;;;;;;12.85;7.80;;;12.50;99.90;;;;;;5054371;28;20048;-79
2022/09/04 04:17:48;;;;;;;12.27;7.00;;;12.50;99.90;;;;;;5054262;28;20622;-79
2022/09/04 04:20:23;;;;;;;11.85;7.35;;;12.50;99.90;;;;;;5072901;28;20469;-83
2022/09/04 04:23:07;;;;;;;13.20;8.65;;;12.50;99.90;;;;;;5073717;28;20032;-79
2022/09/04 04:25:48;;;;;;;12.68;7.90;;;12.50;99.90;;;;;;5053052;28;21066;-79
2022/09/04 04:28:55;;;;;;;11.55;7.82;;;12.50;99.90;;;;;;5073268;28;20044;-83
2022/09/04 04:31:40;;;;;;;13.13;7.35;;;12.50;99.90;;;;;;5054561;28;20044;-80
2022/09/04 04:34:24;;;;;;;12.40;7.15;;;12.50;99.90;;;;;;5068309;28;20028;-80
2022/09/04 04:37:02;;;;;;;10.15;7.45;;;12.40;99.90;;;;;;5052814;28;20497;-80
2022/09/04 04:40:00;;;;;;;12.43;7.30;;;12.30;99.90;;;;;;5054623;28;20041;-80
2022/09/04 04:43:00;;;;;;;11.27;7.93;;;12.30;99.90;;;;;;5035428;28;20051;-79
2022/09/04 04:46:10;;;;;;;15.32;9.10;;;12.30;99.90;;;;;;5034686;28;20040;-80
2022/09/04 04:48:54;;;;;;;18.27;9.60;;;12.30;99.90;;;;;;5048081;28;20040;-79
2022/09/04 04:51:52;;;;;;;16.88;9.25;;;12.30;99.90;;;;;;5053142;28;20485;-80
2022/09/04 04:54:24;;;;;;;16.77;9.65;;;12.10;99.90;;;;;;5053763;28;20036;-83
2022/09/04 04:57:28;;;;;;;16.88;9.75;;;12.00;99.90;;;;;;5053512;28;20041;-80
2022/09/04 05:00:18;;;;;;;16.02;10.02;;;12.10;99.90;;;;;;5053662;28;20065;-80
2022/09/04 05:03:15;;;;;;;16.93;8.87;;;12.00;99.90;;;;;;5065437;28;20466;-79
2022/09/04 05:05:58;;;;;;;19.17;10.95;;;12.10;99.90;;;;;;5063986;28;20367;-79
2022/09/04 05:08:41;;;;;;;18.33;10.90;;;12.20;99.90;;;;;;5046245;28;20051;-80
2022/09/04 05:11:19;;;;;;;16.50;9.63;;;12.20;99.90;;;;;;5034924;28;20044;-80
2022/09/04 05:14:22;;;;;;;15.77;9.13;;;12.20;99.90;;;;;;5071584;28;20035;-79
2022/09/04 05:17:16;;;;;;;15.68;10.13;;;12.30;99.90;;;;;;5054163;28;20037;-79
2022/09/04 05:19:57;;;;;;;15.25;9.70;;;12.40;99.90;;;;;;5072328;28;20036;-79
2022/09/04 05:22:46;;;;;;;19.13;11.70;;;12.60;99.90;;;;;;5071057;28;20025;-79
2022/09/04 05:25:17;;;;;;;18.13;10.32;;;12.70;99.90;;;;;;5044822;28;20040;-80
2022/09/04 05:28:08;;;;;;;17.08;9.48;;;12.80;99.90;;;;;;5072716;28;20036;-79
2022/09/04 05:30:48;;;;;;;15.32;10.00;;;12.90;99.90;;;;;;5052090;28;20036;-80
2022/09/04 05:33:28;;;;;;;12.90;8.77;;;13.50;99.90;;;;;;5053068;28;20029;-79
2022/09/04 05:36:45;;;;;;;11.82;7.75;;;14.20;99.90;;;;;;5052058;28;20470;-80
2022/09/04 05:39:25;;;;;;;8.15;6.38;;;15.00;99.90;;;;;;5030842;28;20071;-80
2022/09/04 05:42:13;;;;;;;8.57;6.18;;;15.80;99.90;;;;;;5071325;28;20032;-79
2022/09/04 05:45:01;;;;;;;8.80;6.10;;;16.70;99.90;;;;;;5064378;28;20031;-80
2022/09/04 05:47:47;;;;;;;6.60;5.07;;;17.40;99.90;;;;;;5036498;28;20049;-80
2022/09/04 05:50:31;;;;;;;7.30;5.13;;;16.80;99.90;;;;;;5052298;28;20374;-80
2022/09/04 05:53:05;;;;;;;8.43;5.95;;;16.30;99.90;;;;;;5066695;28;20385;-80
2022/09/04 05:55:34;;;;;;;5.93;4.55;;;15.70;99.90;;;;;;5069691;28;20464;-80
2022/09/04 05:58:30;;;;;;;6.45;5.10;;;14.90;99.90;;;;;;5071651;28;20035;-80
2022/09/04 06:01:00;;;;;;;6.90;5.07;;;14.40;99.90;;;;;;5053543;28;20051;-80
2022/09/04 06:03:55;;;;;;;7.95;5.38;;;14.20;99.90;;;;;;5053374;28;20033;-78
2022/09/04 06:06:35;;;;;;;8.50;6.40;;;14.20;99.90;;;;;;5034133;28;20036;-84
2022/09/04 06:09:10;;;;;;;9.80;5.63;;;14.60;99.90;;;;;;5069609;28;20040;-79
2022/09/04 06:12:20;;;;;;;5.97;4.93;;;16.70;99.90;;;;;;5052775;28;20294;-79
2022/09/04 06:15:12;;;;;;;5.45;3.92;;;18.80;99.90;;;;;;5051076;28;20355;-79
2022/09/04 06:17:47;;;;;;;8.45;4.32;;;19.50;99.90;;;;;;5069572;28;20039;-79
2022/09/04 06:20:35;;;;;;;5.95;4.82;;;20.50;99.90;;;;;;5047815;28;20040;-79
2022/09/04 06:23:38;;;;;;;6.43;4.63;;;21.20;99.90;;;;;;5062175;28;20381;-79
2022/09/04 06:26:32;;;;;;;6.88;4.90;;;22.60;99.90;;;;;;5062351;28;20048;-80
2022/09/04 06:29:05;;;;;;;4.32;3.45;;;23.80;97.00;;;;;;5074586;28;20040;-80
2022/09/04 06:31:55;;;;;;;5.82;4.10;;;24.40;94.70;;;;;;5070906;28;20044;-80
2022/09/04 06:34:33;;;;;;;4.53;3.90;;;25.20;94.00;;;;;;5072141;28;20039;-85
2022/09/04 06:37:17;;;;;;;4.88;3.80;;;25.40;91.60;;;;;;5070101;28;20047;-80
2022/09/04 06:40:20;;;;;;;4.85;4.35;;;25.10;91.50;;;;;;5086881;28;20040;-85
2022/09/04 06:43:06;;;;;;;4.78;4.07;;;25.40;92.90;;;;;;5081477;28;20032;-81
2022/09/04 06:45:39;;;;;;;6.18;4.40;;;25.90;91.20;;;;;;5069838;28;20470;-81
2022/09/04 06:48:29;;;;;;;5.63;4.35;;;25.60;87.50;;;;;;5070679;28;20390;-81
2022/09/04 06:51:32;;;;;;;8.85;4.18;;;25.50;91.90;;;;;;5069440;28;20051;-81
2022/09/04 06:54:18;;;;;;;4.28;3.75;;;25.70;89.10;;;;;;5083347;28;20496;-79
2022/09/04 06:56:57;;;;;;;5.32;3.90;;;26.30;91.20;;;;;;5087334;28;20036;-78
2022/09/04 06:59:55;;;;;;;7.15;4.03;;;27.10;87.30;;;;;;5071646;28;20047;-84
2022/09/04 07:02:24;;;;;;;4.72;3.90;;;27.40;84.70;;;;;;5085380;28;20032;-79
2022/09/04 07:05:16;;;;;;;5.22;4.05;;;26.80;83.00;;;;;;5088121;28;20040;-78
2022/09/04 07:08:01;;;;;;;5.10;4.32;;;25.50;90.30;;;;;;5090637;28;20028;-78
2022/09/04 07:10:30;;;;;;;5.90;3.83;;;23.70;95.40;;;;;;5090763;28;20496;-83
2022/09/04 07:13:04;;;;;;;7.20;4.80;;;23.70;98.30;;;;;;5082894;28;20032;-81
2022/09/04 07:15:40;;;;;;;6.00;4.72;;;23.80;97.50;;;;;;5090060;28;20098;-81
2022/09/04 07:18:44;;;;;;;6.63;4.65;;;24.60;96.80;;;;;;5072713;28;20035;-80
2022/09/04 07:21:11;;;;;;;5.45;4.45;;;25.00;95.10;;;;;;5048091;28;20051;-81
2022/09/04 07:23:51;;;;;;;7.00;5.82;;;25.10;96.00;;;;;;5082353;28;20035;-80
2022/09/04 07:26:36;;;;;;;7.13;4.97;;;25.40;93.90;;;;;;5088925;28;20044;-78
2022/09/04 07:29:05;;;;;;;7.82;5.30;;;24.00;97.00;;;;;;5091014;28;20068;-79
2022/09/04 07:31:49;;;;;;;9.43;5.88;;;23.20;99.10;;;;;;5099230;28;20041;-80
2022/09/04 07:34:19;;;;;;;5.63;4.63;;;23.20;99.90;;;;;;5089499;28;20040;-79
2022/09/04 07:37:02;;;;;;;6.65;5.35;;;23.80;99.30;;;;;;5101806;28;20040;-79
2022/09/04 07:39:47;;;;;;;6.28;4.63;;;23.90;99.50;;;;;;5095036;28;20039;-79
2022/09/04 07:42:19;;;;;;;6.20;4.57;;;24.90;97.10;;;;;;5074737;28;20385;-79
2022/09/04 07:45:00;;;;;;;5.65;4.82;;;25.20;95.80;;;;;;5073084;28;20514;-79
2022/09/04 07:47:46;;;;;;;6.55;5.70;;;25.00;94.60;;;;;;5073366;28;20037;-84
2022/09/04 07:50:18;;;;;;;8.27;6.05;;;25.40;95.20;;;;;;5074525;28;20043;-80
2022/09/04 07:53:23;;;;;;;7.53;5.93;;;24.70;95.90;;;;;;5086954;28;20051;-80
2022/09/04 07:55:51;;;;;;;9.55;6.18;;;24.40;97.40;;;;;;5085686;28;20098;-80
2022/09/04 07:58:23;;;;;;;9.18;6.68;;;25.20;95.30;;;;;;5075443;28;20067;-79
2022/09/04 08:01:07;;;;;;;7.47;6.15;;;25.50;95.50;;;;;;5076365;28;20043;-81
2022/09/04 08:03:53;;;;;;;8.98;6.88;;;25.20;94.90;;;;;;5077719;28;20036;-82
2022/09/04 08:06:29;;;;;;;9.38;6.45;;;24.40;96.90;;;;;;5088810;28;20032;-81
2022/09/04 08:09:32;;;;;;;9.82;6.80;;;24.20;98.50;;;;;;5080935;28;20043;-81
2022/09/04 08:12:53;;;;;;;7.60;5.63;;;24.20;97.10;;;;;;5085066;28;20020;-82
2022/09/04 08:15:41;;;;;;;7.55;5.85;;;23.40;99.90;;;;;;5027733;28;20505;-80
2022/09/04 08:18:45;;;;;;;7.22;5.30;;;25.30;97.20;;;;;;5088073;28;20043;-82
2022/09/04 08:21:35;;;;;;;4.82;4.05;;;26.50;93.70;;;;;;5075496;28;20029;-80
2022/09/04 08:24:10;;;;;;;8.38;4.32;;;25.60;93.00;;;;;;5080554;28;20036;-79
2022/09/04 08:27:08;;;;;;;6.25;4.30;;;25.40;95.10;;;;;;5064123;28;20048;-83
2022/09/04 08:29:58;;;;;;;7.35;4.68;;;26.70;92.60;;;;;;5036599;28;20033;-82
2022/09/04 08:33:02;;;;;;;5.22;4.20;;;26.40;91.50;;;;;;5068818;28;20036;-81
2022/09/04 08:35:33;;;;;;;5.47;4.85;;;26.20;91.70;;;;;;5052709;28;20028;-80
2022/09/04 08:38:29;;;;;;;5.57;4.60;;;25.30;94.20;;;;;;5052185;28;20036;-86
2022/09/04 08:41:40;;;;;;;5.75;4.88;;;25.80;92.90;;;;;;5065149;28;20021;-80
2022/09/04 08:44:18;;;;;;;5.00;4.07;;;26.30;91.80;;;;;;5051346;28;20049;-78
2022/09/04 08:47:06;;;;;;;5.60;3.90;;;26.40;92.50;;;;;;5047811;28;20059;-80
2022/09/04 08:50:01;;;;;;;4.70;4.00;;;25.60;92.90;;;;;;5038285;28;20355;-79
2022/09/04 08:53:01;;;;;;;4.80;3.50;;;25.50;93.90;;;;;;5039991;28;20449;-82
2022/09/04 08:56:05;;;;;;;4.93;2.92;;;25.70;93.80;;;;;;5046646;28;20464;-81
2022/09/04 08:58:56;;;;;;;3.70;2.85;;;25.00;94.30;;;;;;5065985;28;20325;-79
2022/09/04 09:01:31;;;;;;;4.60;3.95;;;24.80;95.90;;;;;;5067463;28;20024;-80
2022/09/04 09:04:16;;;;;;;5.35;4.75;;;25.20;96.00;;;;;;5043022;28;20032;-80
2022/09/04 09:07:19;;;;;;;5.88;4.63;;;24.90;97.50;;;;;;5044609;28;20025;-80
2022/09/04 09:10:15;;;;;;;6.25;4.35;;;24.80;95.80;;;;;;5051720;28;20053;-79
2022/09/04 09:12:52;;;;;;;5.75;4.80;;;24.80;96.40;;;;;;4966960;28;20465;-80
2022/09/04 09:15:36;;;;;;;5.70;4.70;;;25.00;95.10;;;;;;5066146;28;20446;-82
2022/09/04 09:18:18;;;;;;;5.70;5.10;;;25.00;95.50;;;;;;5053578;28;20028;-83
2022/09/04 09:20:55;;;;;;;4.88;4.38;;;25.10;95.80;;;;;;5052079;28;20033;-82
2022/09/04 09:23:48;;;;;;;5.75;4.75;;;26.60;93.90;;;;;;5046179;28;20024;-81
2022/09/04 09:26:29;;;;;;;6.35;4.93;;;28.00;88.10;;;;;;5071312;28;20045;-81
2022/09/04 09:29:21;;;;;;;5.20;4.38;;;28.60;83.80;;;;;;5071970;28;20392;-81
2022/09/04 09:32:06;;;;;;;6.88;4.30;;;28.80;80.10;;;;;;5052932;28;20758;-81
2022/09/04 09:34:53;;;;;;;6.20;4.05;;;28.40;82.70;;;;;;5070302;28;20472;-81
2022/09/04 09:37:37;;;;;;;5.13;3.75;;;27.30;85.80;;;;;;5070724;28;20400;-82
2022/09/04 09:40:24;;;;;;;5.55;3.75;;;27.70;87.90;;;;;;5058426;28;20373;-82
2022/09/04 09:43:00;;;;;;;5.05;4.05;;;28.50;82.10;;;;;;5040616;28;20036;-81
2022/09/04 09:45:45;;;;;;;3.38;2.65;;;28.60;78.60;;;;;;5055362;28;20381;-82
2022/09/04 09:48:14;;;;;;;3.42;2.17;;;27.60;81.70;;;;;;5068781;28;20039;-81
2022/09/04 09:51:24;;;;;;;4.95;3.08;;;26.10;85.60;;;;;;5072497;28;20033;-81
2022/09/04 09:54:27;;;;;;;4.18;2.67;;;26.40;86.90;;;;;;5037078;28;20036;-82
2022/09/04 09:57:43;;;;;;;4.35;3.30;;;26.50;86.80;;;;;;5056759;28;20025;-81
2022/09/04 10:00:14;;;;;;;6.35;3.85;;;25.80;88.10;;;;;;5016895;28;20032;-81
2022/09/04 10:03:15;;;;;;;4.40;3.17;;;24.90;92.50;;;;;;5035191;28;20378;-81
2022/09/04 10:05:59;;;;;;;5.45;2.88;;;24.60;94.00;;;;;;5050862;28;20450;-81
2022/09/04 10:08:57;;;;;;;5.00;3.85;;;24.00;95.40;;;;;;5066877;28;20032;-79
2022/09/04 10:11:48;;;;;;;5.18;3.20;;;23.60;96.60;;;;;;5035352;28;20037;-80
2022/09/04 10:14:20;;;;;;;7.53;4.05;;;23.50;97.00;;;;;;5051505;28;20342;-80
2022/09/04 10:17:05;;;;;;;5.50;4.05;;;23.60;97.20;;;;;;5035335;28;20037;-81
2022/09/04 10:19:37;;;;;;;6.03;3.78;;;23.70;97.90;;;;;;5072902;28;20029;-82
2022/09/04 10:22:40;;;;;;;5.93;4.03;;;23.60;96.60;;;;;;5061392;28;20036;-81
2022/09/04 10:25:22;;;;;;;6.07;4.30;;;24.00;97.20;;;;;;5057186;28;20036;-80
2022/09/04 10:28:24;;;;;;;4.38;3.38;;;24.40;95.50;;;;;;5059808;28;20037;-80
2022/09/04 10:31:16;;;;;;;5.35;4.22;;;24.50;95.40;;;;;;5021286;28;20037;-81
2022/09/04 10:34:18;;;;;;;5.85;3.10;;;24.60;95.30;;;;;;5055491;28;20138;-82
2022/09/04 10:37:05;;;;;;;4.60;3.00;;;24.90;94.30;;;;;;5022551;28;20493;-82
2022/09/04 10:40:35;;;;;;;4.97;2.60;;;25.10;91.70;;;;;;5062603;28;20037;-82
2022/09/04 10:43:19;;;;;;;3.38;1.92;;;24.90;92.60;;;;;;5048715;28;20036;-81
2022/09/04 10:45:52;;;;;;;2.42;1.70;;;24.60;90.60;;;;;;5050584;28;20040;-81
2022/09/04 10:48:53;;;;;;;2.65;1.77;;;24.30;90.90;;;;;;5050551;28;20052;-82
2022/09/04 10:51:53;;;;;;;4.45;2.22;;;24.10;92.80;;;;;;5053261;28;20040;-81
2022/09/04 10:55:06;;;;;;;2.50;1.80;;;24.50;93.30;;;;;;5053176;28;20033;-81
2022/09/04 10:57:38;;;;;;;4.03;2.10;;;24.90;91.70;;;;;;5001253;28;20048;-82
2022/09/04 11:00:06;;;;;;;2.25;1.52;;;24.60;91.80;;;;;;5053672;28;20029;-80
2022/09/04 11:02:51;;;;;;;3.28;1.73;;;24.50;89.80;;;;;;5069205;28;20032;-82
2022/09/04 11:05:26;;;;;;;2.72;1.77;;;24.10;90.80;;;;;;5047587;28;20032;-80
2022/09/04 11:08:35;;;;;;;2.90;2.00;;;23.60;91.20;;;;;;5033708;28;20470;-79
2022/09/04 11:11:39;;;;;;;2.70;2.40;;;24.10;90.30;;;;;;5074862;28;20457;-74
2022/09/04 11:14:42;;;;;;;4.03;2.95;;;24.90;86.10;;;;;;5073860;28;20036;-75
2022/09/04 11:17:30;;;;;;;4.65;3.13;;;24.50;87.80;;;;;;5055726;28;20111;-74
2022/09/04 11:20:11;;;;;;;4.50;3.78;;;24.70;87.20;;;;;;5055201;28;20033;-74
2022/09/04 11:23:13;;;;;;;3.80;2.78;;;24.60;87.80;;;;;;5068768;28;20032;-74
2022/09/04 11:26:04;;;;;;;3.50;2.67;;;24.80;85.10;;;;;;5068189;28;20040;-75
2022/09/04 11:28:57;;;;;;;3.38;2.08;;;25.40;83.30;;;;;;5071914;28;20020;-75
2022/09/04 11:31:40;;;;;;;4.85;3.08;;;25.40;82.90;;;;;;5065219;28;20032;-74
2022/09/04 11:34:39;;;;;;;3.75;2.50;;;25.80;83.00;;;;;;5070584;28;20016;-74
2022/09/04 11:37:24;;;;;;;2.60;1.92;;;25.70;81.30;;;;;;5045910;28;20048;-74
2022/09/04 11:40:11;;;;;;;4.05;2.50;;;25.50;83.50;;;;;;5059363;28;20029;-74
2022/09/04 11:43:05;;;;;;;2.80;2.33;;;26.00;83.70;;;;;;5070919;28;20035;-74
2022/09/04 11:45:40;;;;;;;2.90;2.15;;;26.40;75.90;;;;;;5075921;28;20029;-74
2022/09/04 11:48:25;;;;;;;4.13;2.30;;;26.50;78.20;;;;;;5065027;28;20025;-76
2022/09/04 11:51:06;;;;;;;4.22;1.80;;;26.00;78.30;;;;;;5079765;28;20036;-74
2022/09/04 11:53:45;;;;;;;2.83;1.45;;;25.60;80.00;;;;;;5077664;28;20031;-73
2022/09/04 11:56:26;;;;;;;2.90;1.95;;;25.40;79.10;;;;;;5071734;28;20025;-74
2022/09/04 11:59:09;;;;;;;3.08;1.77;;;25.40;77.20;;;;;;5067568;28;20028;-73
2022/09/04 12:01:53;;;;;;;3.53;1.77;;;25.50;73.60;;;;;;5070712;28;20027;-73
2022/09/04 12:04:51;;;;;;;3.90;1.85;;;25.50;76.70;;;;;;5055204;28;20036;-74
2022/09/04 12:07:54;;;;;;;2.83;1.30;;;25.40;77.40;;;;;;5033646;28;20047;-72
2022/09/04 12:10:56;;;;;;;1.17;0.90;;;25.60;75.60;;;;;;5063689;28;20456;-73
2022/09/04 12:13:30;;;;;;;2.63;1.27;;;25.90;71.90;;;;;;5058327;28;20047;-74
2022/09/04 12:16:27;;;;;;;1.67;0.90;;;25.70;70.50;;;;;;5074837;28;20024;-73
2022/09/04 12:19:30;;;;;;;4.32;1.70;;;25.80;70.90;;;;;;5062727;28;20362;-74
2022/09/04 12:22:24;;;;;;;1.85;1.38;;;25.50;71.20;;;;;;5063093;28;20024;-73
2022/09/04 12:24:59;;;;;;;3.03;1.48;;;25.60;71.90;;;;;;5055465;28;20366;-73
2022/09/04 12:27:56;;;;;;;1.80;1.15;;;25.70;70.60;;;;;;5056339;28;20044;-72
2022/09/04 12:30:28;;;;;;;2.50;1.33;;;25.60;71.50;;;;;;5040680;28;20389;-72
2022/09/04 12:33:09;;;;;;;2.30;1.25;;;25.80;71.30;;;;;;5062694;28;20036;-72
2022/09/04 12:36:05;;;;;;;1.90;1.30;;;26.20;68.70;;;;;;5061416;28;20043;-77
2022/09/04 12:39:20;;;;;;;3.13;1.10;;;26.10;68.90;;;;;;5066089;28;20031;-73
2022/09/04 12:41:53;;;;;;;2.47;1.00;;;26.20;69.30;;;;;;5046022;28;20033;-73
2022/09/04 12:44:44;;;;;;;2.45;1.60;;;26.40;65.90;;;;;;5064601;28;20378;-73
2022/09/04 12:47:57;;;;;;;2.08;1.17;;;26.80;66.00;;;;;;5054494;28;20080;-73
2022/09/04 12:50:46;;;;;;;3.67;1.10;;;26.40;64.60;;;;;;5053947;28;20063;-73
2022/09/04 12:53:38;;;;;;;1.50;0.90;;;26.30;67.60;;;;;;5076562;28;20448;-73
2022/09/04 12:56:10;;;;;;;1.95;1.30;;;26.50;67.50;;;;;;5066130;28;20039;-74
2022/09/04 12:59:11;;;;;;;1.27;0.93;;;26.90;64.90;;;;;;5060327;28;20028;-77
2022/09/04 13:01:43;;;;;;;5.10;1.35;;;26.60;65.80;;;;;;5059826;28;20028;-78
2022/09/04 13:04:25;;;;;;;1.92;1.45;;;26.30;68.50;;;;;;5070824;28;20036;-74
2022/09/04 13:07:07;;;;;;;1.15;0.85;;;26.40;65.40;;;;;;5061664;28;20032;-73
2022/09/04 13:09:58;;;;;;;2.35;1.20;;;26.30;66.20;;;;;;5063398;28;20377;-72
2022/09/04 13:12:49;;;;;;;2.88;1.20;;;25.80;66.30;;;;;;5068785;28;20028;-73
2022/09/04 13:15:49;;;;;;;2.00;1.23;;;26.00;65.20;;;;;;5082590;28;20028;-74
2022/09/04 13:18:24;;;;;;;1.73;1.10;;;26.00;65.80;;;;;;5060347;28;20037;-73
2022/09/04 13:21:13;;;;;;;2.33;1.17;;;26.10;67.10;;;;;;5064904;28;20040;-74
2022/09/04 13:24:02;;;;;;;2.38;1.08;;;26.50;65.30;;;;;;5052197;28;20044;-74
2022/09/04 13:26:59;;;;;;;1.63;1.27;;;26.70;64.00;;;;;;5042114;28;20048;-73
2022/09/04 13:29:39;;;;;;;2.35;1.10;;;26.90;66.10;;;;;;5058424;28;20422;-73
2022/09/04 13:32:33;;;;;;;1.60;0.90;;;27.30;64.80;;;;;;5061485;28;20036;-73
2022/09/04 13:35:30;;;;;;;1.38;1.23;;;27.20;62.90;;;;;;5057846;28;20021;-73
2022/09/04 13:38:04;;;;;;;2.83;1.17;;;26.70;64.20;;;;;;5052717;28;20025;-73
2022/09/04 13:41:09;;;;;;;2.65;1.35;;;26.90;63.70;;;;;;5052421;28;20484;-73
2022/09/04 13:43:59;;;;;;;1.30;0.80;;;26.50;63.30;;;;;;5059338;28;20028;-72
2022/09/04 13:46:35;;;;;;;1.80;0.98;;;26.80;63.50;;;;;;5064833;28;20039;-73
2022/09/04 13:49:09;;;;;;;1.40;1.00;;;27.00;62.80;;;;;;5071058;28;20036;-74
2022/09/04 13:52:09;;;;;;;1.25;0.95;;;27.00;63.80;;;;;;5052820;28;20033;-73
2022/09/04 13:55:08;;;;;;;1.67;1.00;;;27.10;62.50;;;;;;5050850;28;20048;-73
2022/09/04 13:57:41;;;;;;;2.70;1.23;;;26.70;63.40;;;;;;5059090;28;20029;-73
2022/09/04 14:00:10;;;;;;;1.83;1.17;;;26.60;64.50;;;;;;5065153;28;20473;-74
2022/09/04 14:02:38;;;;;;;1.60;0.97;;;26.70;63.80;;;;;;5058179;28;20048;-73
2022/09/04 14:05:15;;;;;;;1.55;1.17;;;26.80;62.10;;;;;;5050870;28;20043;-73
2022/09/04 14:07:46;;;;;;;1.40;1.00;;;26.80;61.10;;;;;;5055313;28;20028;-73
2022/09/04 14:10:28;;;;;;;1.67;1.00;;;26.80;60.30;;;;;;5070825;28;20409;-74
2022/09/04 14:13:34;;;;;;;1.85;1.20;;;26.60;59.50;;;;;;5070516;28;20029;-73
2022/09/04 14:16:07;;;;;;;1.40;0.70;;;26.80;61.10;;;;;;5069434;28;20036;-74
2022/09/04 14:18:53;;;;;;;1.98;0.70;;;26.90;58.70;;;;;;5066442;28;20039;-74
2022/09/04 14:21:32;;;;;;;1.92;0.77;;;27.00;57.20;;;;;;5051538;28;20036;-74